createdAt,value
2023-05-10T00:02:25.054Z,15.46
2023-05-10T00:04:57.120Z,15.64
2023-05-10T00:07:28.830Z,14.53
2023-05-10T00:10:00.522Z,14.43
2023-05-10T00:12:32.190Z,13.89
2023-05-10T00:15:05.104Z,13.99
2023-05-10T00:17:36.734Z,13.93
2023-05-10T00:20:08.763Z,13.78
2023-05-10T00:22:40.373Z,13.57
2023-05-10T00:25:12.037Z,13.51
2023-05-10T00:27:43.758Z,13.58
2023-05-10T00:30:16.801Z,13.33
2023-05-10T00:32:48.630Z,13.24
2023-05-10T00:35:20.342Z,13.59
2023-05-10T00:37:53.191Z,13.37
2023-05-10T00:40:26.046Z,13.48
2023-05-10T00:43:02.023Z,13.83
2023-05-10T00:45:36.437Z,13.95
2023-05-10T00:48:08.256Z,14.49
2023-05-10T00:50:40.385Z,14.43
2023-05-10T00:53:12.099Z,14.58
2023-05-10T00:55:44.249Z,14.53
2023-05-10T00:58:16.117Z,14.01
2023-05-10T01:00:48.466Z,13.96
2023-05-10T01:03:20.753Z,13.68
2023-05-10T01:05:53.780Z,13.88
2023-05-10T01:08:27.045Z,14.35
2023-05-10T01:10:59.677Z,14.08
2023-05-10T01:13:39.771Z,13.95
2023-05-10T01:16:12.030Z,13.57
2023-05-10T01:18:45.770Z,13.21
2023-05-10T01:21:24.300Z,13.12
2023-05-10T01:24:11.435Z,13.27
2023-05-10T01:27:01.120Z,13.05
2023-05-10T01:29:48.125Z,12.86
2023-05-10T01:32:27.515Z,13.11
2023-05-10T01:35:18.109Z,13.26
2023-05-10T01:38:17.016Z,13.12
2023-05-10T01:41:18.227Z,13.66
2023-05-10T01:44:11.779Z,13.42
2023-05-10T01:46:54.149Z,13.18
2023-05-10T01:49:37.813Z,13.16
2023-05-10T01:52:14.959Z,14.13
2023-05-10T01:54:57.810Z,14.50
2023-05-10T01:57:35.183Z,14.59
2023-05-10T02:00:11.637Z,14.09
2023-05-10T02:02:49.966Z,14.91
2023-05-10T02:05:25.173Z,15.26
2023-05-10T02:08:00.619Z,15.08
2023-05-10T02:10:35.267Z,14.98
2023-05-10T02:13:10.972Z,15.42
2023-05-10T02:15:47.750Z,15.23
2023-05-10T02:18:20.459Z,15.41
2023-05-10T02:20:56.341Z,15.59
2023-05-10T02:23:30.271Z,14.73
2023-05-10T02:26:04.877Z,14.25
2023-05-10T02:28:38.399Z,14.51
2023-05-10T02:31:12.070Z,14.69
2023-05-10T02:33:46.960Z,14.41
2023-05-10T02:36:22.089Z,13.72
2023-05-10T02:38:54.317Z,14.13
2023-05-10T02:41:27.606Z,13.66
2023-05-10T02:44:03.511Z,13.92
2023-05-10T02:46:35.227Z,13.53
2023-05-10T02:49:07.478Z,13.64
2023-05-10T02:51:45.176Z,12.96
2023-05-10T02:54:21.017Z,12.88
2023-05-10T02:56:58.553Z,12.74
2023-05-10T02:59:30.256Z,12.51
2023-05-10T03:02:02.842Z,12.50
2023-05-10T03:04:34.780Z,12.68
2023-05-10T03:07:07.144Z,12.66
2023-05-10T03:09:38.820Z,13.20
2023-05-10T03:12:31.244Z,13.75
2023-05-10T03:15:33.648Z,13.46
2023-05-10T03:18:15.041Z,13.99
2023-05-10T03:20:56.278Z,14.02
2023-05-10T03:23:36.349Z,14.62
2023-05-10T03:26:09.689Z,14.61
2023-05-10T03:28:43.076Z,14.10
2023-05-10T03:31:15.698Z,13.43
2023-05-10T03:33:52.866Z,13.74
2023-05-10T03:36:29.884Z,13.46
2023-05-10T03:39:01.723Z,13.64
2023-05-10T03:41:33.402Z,13.78
2023-05-10T03:44:05.538Z,13.66
2023-05-10T03:46:37.375Z,13.32
2023-05-10T03:49:09.736Z,12.97
2023-05-10T03:51:42.223Z,12.53
2023-05-10T03:54:14.412Z,12.52
2023-05-10T03:56:47.382Z,12.95
2023-05-10T03:59:20.112Z,12.72
2023-05-10T04:01:52.526Z,12.42
2023-05-10T04:04:25.062Z,12.18
2023-05-10T04:06:56.923Z,12.21
2023-05-10T04:09:29.549Z,12.51
2023-05-10T04:12:03.063Z,12.58
2023-05-10T04:14:36.684Z,12.23
2023-05-10T04:17:09.017Z,12.11
2023-05-10T04:19:40.765Z,11.89
2023-05-10T04:22:13.254Z,11.95
2023-05-10T04:24:45.642Z,11.83
2023-05-10T04:27:17.580Z,11.88
2023-05-10T04:29:50.818Z,11.74
2023-05-10T04:32:22.651Z,12.12
2023-05-10T04:34:54.550Z,11.99
2023-05-10T04:37:26.416Z,12.05
2023-05-10T04:39:58.592Z,12.13
2023-05-10T04:42:30.285Z,12.06
2023-05-10T04:45:01.955Z,12.33
2023-05-10T04:47:33.804Z,12.39
2023-05-10T04:50:06.070Z,13.09
2023-05-10T04:52:37.691Z,12.64
2023-05-10T04:55:09.500Z,13.08
2023-05-10T04:57:41.331Z,13.41
2023-05-10T05:00:13.589Z,13.96
2023-05-10T05:02:45.838Z,13.76
2023-05-10T05:05:17.454Z,14.00
2023-05-10T05:07:49.050Z,14.17
2023-05-10T05:10:20.718Z,14.15
2023-05-10T05:12:52.450Z,13.85
2023-05-10T05:15:24.308Z,13.68
2023-05-10T05:17:55.985Z,14.81
2023-05-10T05:20:27.718Z,14.95
2023-05-10T05:22:59.387Z,14.22
2023-05-10T05:25:31.659Z,14.41
2023-05-10T05:28:03.492Z,14.10
2023-05-10T05:30:35.758Z,15.15
2023-05-10T05:33:07.560Z,15.06
2023-05-10T05:35:39.324Z,14.36
2023-05-10T05:38:11.189Z,15.35
2023-05-10T05:40:43.260Z,16.30
2023-05-10T05:43:15.106Z,18.02
2023-05-10T05:45:46.840Z,17.66
2023-05-10T05:48:18.630Z,19.54
2023-05-10T05:50:50.364Z,20.83
2023-05-10T05:53:22.609Z,20.15
2023-05-10T05:55:58.121Z,18.87
2023-05-10T05:58:30.554Z,19.43
2023-05-10T06:01:02.718Z,17.91
2023-05-10T06:03:34.586Z,15.87
2023-05-10T06:06:06.769Z,15.49
2023-05-10T06:08:38.826Z,16.76
2023-05-10T06:11:10.731Z,18.72
2023-05-10T06:13:42.974Z,17.88
2023-05-10T06:16:15.082Z,16.29
2023-05-10T06:18:46.912Z,16.17
2023-05-10T06:21:19.019Z,18.71
2023-05-10T06:23:51.213Z,18.67
2023-05-10T06:26:23.372Z,20.22
2023-05-10T06:28:55.439Z,20.66
2023-05-10T06:31:27.499Z,18.20
2023-05-10T06:33:59.888Z,16.95
2023-05-10T06:36:36.946Z,20.05
2023-05-10T06:39:09.968Z,21.28
2023-05-10T06:41:41.967Z,21.81
2023-05-10T06:44:14.186Z,18.33
2023-05-10T06:46:49.436Z,17.97
2023-05-10T06:49:22.276Z,17.56
2023-05-10T06:51:54.593Z,16.67
2023-05-10T06:54:26.730Z,19.78
2023-05-10T06:57:01.913Z,21.42
2023-05-10T06:59:37.058Z,21.04
2023-05-10T07:02:08.960Z,17.48
2023-05-10T07:04:41.426Z,18.46
2023-05-10T07:07:13.429Z,18.25
2023-05-10T07:09:45.311Z,17.48
2023-05-10T07:12:17.041Z,18.01
2023-05-10T07:14:48.809Z,16.96
2023-05-10T07:17:20.768Z,16.49
2023-05-10T07:19:52.665Z,16.01
2023-05-10T07:22:24.371Z,15.75
2023-05-10T07:24:55.949Z,15.98
2023-05-10T07:27:27.717Z,15.88
2023-05-10T07:29:59.506Z,15.51
2023-05-10T07:32:31.295Z,15.25
2023-05-10T07:35:02.958Z,15.33
2023-05-10T07:37:34.619Z,16.25
2023-05-10T07:40:07.071Z,15.64
2023-05-10T07:42:38.806Z,15.29
2023-05-10T07:45:10.675Z,14.73
2023-05-10T07:47:42.373Z,14.96
2023-05-10T07:50:14.988Z,14.74
2023-05-10T07:52:46.769Z,14.52
2023-05-10T07:55:20.141Z,14.79
2023-05-10T07:57:51.950Z,15.40
2023-05-10T08:00:23.732Z,15.39
2023-05-10T08:02:55.792Z,15.93
2023-05-10T08:05:27.799Z,16.30
2023-05-10T08:07:59.606Z,15.59
2023-05-10T08:10:31.339Z,15.57
2023-05-10T08:13:03.311Z,15.72
2023-05-10T08:15:35.069Z,15.98
2023-05-10T08:18:07.052Z,15.90
2023-05-10T08:20:38.710Z,15.64
2023-05-10T08:23:13.071Z,15.89
2023-05-10T08:25:45.029Z,15.95
2023-05-10T08:28:17.237Z,15.95
2023-05-10T08:30:56.310Z,16.43
2023-05-10T08:33:28.695Z,16.47
2023-05-10T08:36:00.807Z,17.30
2023-05-10T08:38:33.633Z,18.36
2023-05-10T08:41:06.634Z,18.47
2023-05-10T08:43:39.799Z,19.39
2023-05-10T08:46:17.054Z,19.55
2023-05-10T08:48:51.762Z,19.32
2023-05-10T08:51:25.920Z,18.54
2023-05-10T08:53:58.299Z,18.45
2023-05-10T08:56:30.318Z,18.48
2023-05-10T08:59:02.585Z,17.66
2023-05-10T09:01:37.689Z,17.74
2023-05-10T09:04:13.430Z,18.09
2023-05-10T09:06:47.298Z,17.96
2023-05-10T09:09:21.227Z,17.98
2023-05-10T09:11:55.317Z,18.10
2023-05-10T09:14:28.388Z,17.77
2023-05-10T09:17:02.273Z,18.13
2023-05-10T09:19:35.115Z,18.18
2023-05-10T09:22:07.300Z,17.49
2023-05-10T09:24:38.871Z,17.88
2023-05-10T09:27:10.490Z,17.43
2023-05-10T09:29:44.936Z,17.39
2023-05-10T09:32:16.576Z,17.28
2023-05-10T09:34:50.694Z,18.10
2023-05-10T09:37:30.705Z,17.17
2023-05-10T09:40:05.849Z,17.57
2023-05-10T09:42:37.502Z,17.23
2023-05-10T09:45:09.656Z,16.66
2023-05-10T09:47:41.832Z,16.86
2023-05-10T09:50:13.883Z,17.70
2023-05-10T09:52:54.184Z,19.36
2023-05-10T09:55:43.871Z,18.53
2023-05-10T09:58:15.983Z,18.95
2023-05-10T10:00:48.408Z,18.74
2023-05-10T10:03:23.287Z,19.78
2023-05-10T10:05:55.651Z,18.56
2023-05-10T10:08:27.986Z,18.53
2023-05-10T10:11:00.459Z,18.58
2023-05-10T10:13:32.435Z,18.17
2023-05-10T10:16:05.110Z,18.14
2023-05-10T10:18:37.860Z,18.66
2023-05-10T10:21:10.099Z,18.74
2023-05-10T10:23:41.942Z,18.85
2023-05-10T10:26:16.238Z,18.39
2023-05-10T10:29:15.462Z,18.17
2023-05-10T10:32:11.833Z,17.99
2023-05-10T10:34:43.689Z,17.56
2023-05-10T10:37:15.986Z,18.49
2023-05-10T10:39:50.071Z,18.55
2023-05-10T10:42:47.882Z,17.70
2023-05-10T10:45:21.342Z,17.88
2023-05-10T10:48:25.791Z,18.38
2023-05-10T10:50:58.508Z,18.32
2023-05-10T10:53:30.635Z,18.42
2023-05-10T10:56:08.905Z,18.48
2023-05-10T10:58:41.032Z,18.71
2023-05-10T11:01:16.587Z,17.91
2023-05-10T11:04:04.357Z,18.10
2023-05-10T11:06:37.261Z,18.42
2023-05-10T11:09:13.059Z,16.81
2023-05-10T11:11:53.691Z,17.50
2023-05-10T11:14:26.606Z,17.99
2023-05-10T11:16:59.438Z,19.17
2023-05-10T11:19:31.141Z,19.36
2023-05-10T11:22:06.022Z,19.12
2023-05-10T11:24:38.088Z,19.45
2023-05-10T11:27:12.129Z,19.73
2023-05-10T11:29:44.338Z,20.51
2023-05-10T11:32:16.518Z,20.16
2023-05-10T11:34:50.097Z,19.35
2023-05-10T11:37:22.103Z,18.28
2023-05-10T11:39:55.887Z,18.50
2023-05-10T11:42:29.489Z,19.61
2023-05-10T11:45:02.144Z,20.66
2023-05-10T11:47:33.878Z,21.67
2023-05-10T11:50:06.541Z,21.39
2023-05-10T11:52:38.222Z,21.33
2023-05-10T11:55:10.082Z,20.48
2023-05-10T11:57:41.732Z,20.05
2023-05-10T12:00:14.905Z,21.49
2023-05-10T12:02:49.125Z,20.78
2023-05-10T12:05:20.906Z,20.82
2023-05-10T12:07:52.583Z,21.33
2023-05-10T12:10:27.751Z,20.79
2023-05-10T12:12:59.379Z,20.99
2023-05-10T12:15:31.209Z,20.22
2023-05-10T12:18:02.818Z,18.71
2023-05-10T12:20:34.545Z,19.45
2023-05-10T12:23:06.753Z,19.68
2023-05-10T12:25:39.599Z,20.18
2023-05-10T12:28:11.505Z,20.10
2023-05-10T12:30:43.214Z,19.60
2023-05-10T12:33:15.443Z,19.37
2023-05-10T12:35:49.971Z,19.33
2023-05-10T12:38:33.713Z,18.23
2023-05-10T12:41:11.567Z,18.58
2023-05-10T12:43:43.329Z,18.77
2023-05-10T12:46:18.173Z,19.55
2023-05-10T12:48:57.540Z,20.02
2023-05-10T12:51:35.367Z,18.97
2023-05-10T12:54:07.348Z,18.53
2023-05-10T12:56:39.123Z,17.15
2023-05-10T12:59:11.207Z,17.94
2023-05-10T13:01:42.984Z,18.72
2023-05-10T13:04:15.255Z,18.66
2023-05-10T13:06:48.742Z,18.00
2023-05-10T13:09:20.846Z,17.85
2023-05-10T13:11:52.747Z,18.32
2023-05-10T13:14:25.543Z,18.13
2023-05-10T13:16:57.826Z,18.82
2023-05-10T13:19:29.489Z,19.72
2023-05-10T13:22:01.422Z,19.80
2023-05-10T13:24:33.039Z,19.25
2023-05-10T13:27:04.912Z,18.77
2023-05-10T13:29:36.601Z,19.54
2023-05-10T13:32:08.628Z,19.61
2023-05-10T13:34:41.049Z,18.42
2023-05-10T13:37:12.853Z,18.86
2023-05-10T13:39:45.169Z,19.28
2023-05-10T13:42:19.467Z,19.33
2023-05-10T13:44:52.588Z,18.24
2023-05-10T13:47:25.001Z,17.99
2023-05-10T13:49:57.177Z,19.16
2023-05-10T13:52:29.575Z,18.90
2023-05-10T13:55:02.234Z,19.35
2023-05-10T13:57:33.913Z,19.64
2023-05-10T14:00:06.273Z,18.96
2023-05-10T14:02:39.548Z,18.79
2023-05-10T14:05:11.201Z,19.65
2023-05-10T14:07:42.781Z,19.14
2023-05-10T14:10:14.261Z,18.17
2023-05-10T14:12:45.899Z,18.64
2023-05-10T14:15:17.598Z,18.87
2023-05-10T14:17:49.646Z,18.73
2023-05-10T14:20:21.229Z,17.87
2023-05-10T14:22:52.818Z,18.43
2023-05-10T14:25:25.199Z,18.77
2023-05-10T14:27:56.973Z,18.59
2023-05-10T14:30:29.306Z,18.15
2023-05-10T14:33:02.900Z,18.57
2023-05-10T14:35:35.093Z,18.42
2023-05-10T14:38:06.903Z,18.13
2023-05-10T14:40:38.781Z,18.39
2023-05-10T14:43:10.731Z,18.00
2023-05-10T14:45:42.732Z,18.08
2023-05-10T14:48:14.430Z,18.12
2023-05-10T14:50:47.379Z,18.28
2023-05-10T14:53:19.475Z,19.24
2023-05-10T14:55:51.449Z,19.21
2023-05-10T14:58:23.139Z,18.79
2023-05-10T15:00:55.156Z,19.34
2023-05-10T15:03:30.009Z,18.96
2023-05-10T15:06:02.387Z,18.86
2023-05-10T15:08:33.958Z,18.66
2023-05-10T15:11:05.721Z,18.24
2023-05-10T15:13:37.625Z,18.23
2023-05-10T15:16:10.108Z,18.29
2023-05-10T15:18:42.084Z,18.14
2023-05-10T15:21:14.330Z,17.50
2023-05-10T15:23:46.308Z,16.95
2023-05-10T15:26:18.266Z,17.74
2023-05-10T15:28:50.015Z,18.21
2023-05-10T15:31:22.104Z,17.18
2023-05-10T15:33:58.791Z,17.29
2023-05-10T15:36:32.806Z,17.59
2023-05-10T15:39:04.827Z,17.64
2023-05-10T15:41:36.869Z,17.73
2023-05-10T15:44:09.891Z,17.41
2023-05-10T15:46:42.146Z,18.22
2023-05-10T15:49:14.281Z,17.97
2023-05-10T15:51:46.291Z,18.04
2023-05-10T15:54:19.028Z,18.13
2023-05-10T15:56:51.111Z,17.95
2023-05-10T15:59:23.155Z,18.04
2023-05-10T16:01:55.389Z,17.92
2023-05-10T16:04:27.619Z,17.40
2023-05-10T16:07:00.172Z,17.40
2023-05-10T16:09:31.993Z,17.07
2023-05-10T16:12:04.253Z,17.57
2023-05-10T16:14:36.178Z,17.63
2023-05-10T16:17:08.022Z,17.56
2023-05-10T16:19:39.727Z,17.05
2023-05-10T16:22:11.508Z,17.37
2023-05-10T16:24:43.841Z,17.29
2023-05-10T16:27:15.473Z,17.30
2023-05-10T16:29:47.926Z,17.40
2023-05-10T16:32:19.723Z,17.31
2023-05-10T16:34:51.394Z,17.38
2023-05-10T16:37:23.072Z,17.86
2023-05-10T16:39:54.687Z,17.87
2023-05-10T16:42:27.536Z,17.86
2023-05-10T16:44:59.282Z,17.82
2023-05-10T16:47:30.957Z,18.90
2023-05-10T16:50:05.065Z,19.40
2023-05-10T16:52:36.986Z,18.56
2023-05-10T16:55:08.917Z,18.22
2023-05-10T16:57:40.698Z,18.12
2023-05-10T17:00:13.694Z,17.94
2023-05-10T17:02:46.360Z,18.66
2023-05-10T17:05:18.690Z,19.00
2023-05-10T17:07:50.516Z,18.11
2023-05-10T17:10:22.437Z,18.58
2023-05-10T17:12:54.333Z,18.78
2023-05-10T17:15:26.327Z,18.52
2023-05-10T17:17:58.424Z,18.50
2023-05-10T17:20:30.229Z,18.59
2023-05-10T17:23:02.279Z,17.91
2023-05-10T17:25:35.404Z,17.58
2023-05-10T17:28:07.536Z,17.42
2023-05-10T17:30:39.349Z,16.73
2023-05-10T17:33:11.459Z,16.72
2023-05-10T17:35:45.177Z,16.87
2023-05-10T17:38:17.972Z,17.06
2023-05-10T17:40:51.388Z,17.15
2023-05-10T17:43:23.453Z,16.55
2023-05-10T17:45:55.706Z,16.47
2023-05-10T17:48:27.647Z,16.65
2023-05-10T17:51:00.114Z,16.71
2023-05-10T17:53:33.751Z,16.86
2023-05-10T17:56:06.507Z,16.74
2023-05-10T17:58:39.790Z,16.81
2023-05-10T18:01:12.544Z,16.74
2023-05-10T18:03:44.734Z,16.94
2023-05-10T18:06:16.825Z,16.64
2023-05-10T18:08:50.117Z,17.00
2023-05-10T18:11:22.112Z,16.33
2023-05-10T18:13:54.118Z,16.72
2023-05-10T18:16:27.036Z,16.70
2023-05-10T18:18:59.180Z,15.85
2023-05-10T18:21:31.295Z,15.72
2023-05-10T18:24:05.453Z,15.99
2023-05-10T18:26:37.431Z,15.97
2023-05-10T18:29:09.705Z,15.57
2023-05-10T18:31:41.673Z,15.49
2023-05-10T18:34:13.464Z,15.13
2023-05-10T18:36:45.266Z,15.82
2023-05-10T18:39:16.925Z,16.02
2023-05-10T18:41:49.841Z,16.21
2023-05-10T18:44:21.583Z,16.35
2023-05-10T18:46:53.935Z,16.09
2023-05-10T18:49:26.376Z,16.17
2023-05-10T18:51:58.108Z,15.59
2023-05-10T18:54:29.877Z,15.86
2023-05-10T18:57:01.772Z,15.92
2023-05-10T18:59:33.919Z,15.93
2023-05-10T19:02:05.761Z,15.57
2023-05-10T19:04:37.536Z,15.63
2023-05-10T19:07:09.285Z,15.51
2023-05-10T19:09:41.130Z,15.71
2023-05-10T19:12:13.417Z,15.76
2023-05-10T19:14:45.344Z,15.81
2023-05-10T19:17:18.433Z,15.78
2023-05-10T19:19:51.407Z,16.40
2023-05-10T19:22:35.332Z,15.50
2023-05-10T19:25:15.744Z,16.13
2023-05-10T19:27:47.986Z,16.15
2023-05-10T19:30:20.180Z,15.78
2023-05-10T19:32:53.509Z,15.92
2023-05-10T19:35:26.479Z,15.79
2023-05-10T19:37:59.463Z,16.30
2023-05-10T19:40:35.021Z,16.14
2023-05-10T19:43:07.356Z,16.29
2023-05-10T19:45:39.882Z,15.65
2023-05-10T19:48:13.507Z,15.38
2023-05-10T19:50:46.154Z,15.50
2023-05-10T19:53:17.985Z,15.71
2023-05-10T19:55:50.131Z,15.58
2023-05-10T19:58:22.889Z,15.31
2023-05-10T20:00:55.143Z,15.39
2023-05-10T20:03:27.573Z,14.98
2023-05-10T20:06:00.907Z,14.86
2023-05-10T20:08:32.769Z,15.18
2023-05-10T20:11:05.727Z,15.25
2023-05-10T20:13:38.260Z,15.39
2023-05-10T20:16:11.363Z,15.29
2023-05-10T20:18:43.663Z,15.43
2023-05-10T20:21:16.617Z,14.94
2023-05-10T20:23:48.780Z,15.30
2023-05-10T20:26:21.542Z,15.44
2023-05-10T20:28:53.484Z,14.83
2023-05-10T20:31:26.580Z,15.17
2023-05-10T20:33:58.934Z,15.28
2023-05-10T20:36:31.230Z,15.23
2023-05-10T20:39:03.401Z,15.58
2023-05-10T20:41:35.316Z,15.43
2023-05-10T20:44:07.579Z,15.46
2023-05-10T20:46:41.292Z,15.31
2023-05-10T20:49:13.481Z,15.81
2023-05-10T20:51:45.167Z,15.72
2023-05-10T20:54:16.916Z,15.28
2023-05-10T20:56:48.568Z,15.56
2023-05-10T20:59:20.167Z,15.84
2023-05-10T21:01:51.935Z,15.82
2023-05-10T21:04:24.577Z,15.50
2023-05-10T21:06:56.359Z,15.64
2023-05-10T21:09:29.127Z,15.18
2023-05-10T21:12:00.916Z,15.67
2023-05-10T21:14:32.807Z,15.92
2023-05-10T21:17:04.811Z,15.62
2023-05-10T21:19:36.512Z,15.77
2023-05-10T21:22:08.699Z,15.76
2023-05-10T21:24:40.357Z,15.53
2023-05-10T21:27:12.166Z,15.70
2023-05-10T21:29:43.880Z,15.72
2023-05-10T21:32:16.078Z,15.64
2023-05-10T21:34:47.815Z,15.66
2023-05-10T21:37:20.021Z,15.92
2023-05-10T21:39:53.219Z,15.93
2023-05-10T21:42:25.645Z,15.17
2023-05-10T21:44:57.486Z,15.27
2023-05-10T21:47:29.911Z,15.29
2023-05-10T21:50:02.842Z,15.65
2023-05-10T21:52:35.067Z,15.54
2023-05-10T21:55:07.560Z,15.18
2023-05-10T21:57:39.587Z,15.48
2023-05-10T22:00:13.602Z,15.49
2023-05-10T22:02:46.169Z,15.50
2023-05-10T22:05:18.772Z,15.40
2023-05-10T22:07:50.617Z,13.62
2023-05-10T22:10:22.536Z,13.36
2023-05-10T22:12:54.396Z,13.69
2023-05-10T22:15:26.803Z,14.02
2023-05-10T22:17:59.697Z,14.04
2023-05-10T22:20:32.574Z,14.49
2023-05-10T22:23:04.462Z,14.94
2023-05-10T22:25:36.453Z,14.91
2023-05-10T22:28:08.585Z,14.75
2023-05-10T22:30:42.470Z,14.98
2023-05-10T22:33:14.411Z,14.70
2023-05-10T22:35:46.238Z,13.84
2023-05-10T22:38:18.611Z,14.10
2023-05-10T22:40:50.750Z,13.73
2023-05-10T22:43:23.287Z,13.71
2023-05-10T22:45:55.466Z,13.88
2023-05-10T22:48:28.954Z,13.15
2023-05-10T22:51:01.603Z,14.02
2023-05-10T22:53:33.260Z,13.60
2023-05-10T22:56:06.231Z,13.86
2023-05-10T22:58:38.214Z,13.55
2023-05-10T23:01:12.538Z,13.81
2023-05-10T23:03:44.346Z,14.53
2023-05-10T23:06:16.334Z,14.38
2023-05-10T23:08:48.234Z,14.45
2023-05-10T23:11:20.006Z,14.41
2023-05-10T23:13:51.661Z,14.56
2023-05-10T23:16:23.260Z,14.95
2023-05-10T23:18:55.645Z,15.19
2023-05-10T23:21:27.956Z,15.34
2023-05-10T23:24:01.062Z,14.90
2023-05-10T23:26:32.686Z,15.12
2023-05-10T23:29:04.339Z,15.67
2023-05-10T23:31:36.026Z,15.68
2023-05-10T23:34:07.776Z,15.01
2023-05-10T23:36:39.510Z,15.08
2023-05-10T23:39:11.134Z,14.80
2023-05-10T23:41:42.819Z,14.98
2023-05-10T23:44:14.531Z,14.70
2023-05-10T23:46:46.196Z,14.95
2023-05-10T23:49:17.814Z,14.95
2023-05-10T23:51:49.502Z,15.02
2023-05-10T23:54:21.226Z,15.55
2023-05-10T23:56:53.141Z,15.36
2023-05-10T23:59:25.394Z,15.55
